createdAt,value
2019-03-26T00:00:03.434Z,99.90
2019-03-26T00:02:33.455Z,99.90
2019-03-26T00:05:03.667Z,99.90
2019-03-26T00:07:33.806Z,99.90
2019-03-26T00:10:03.927Z,99.90
2019-03-26T00:12:34.427Z,99.90
2019-03-26T00:15:04.576Z,99.90
2019-03-26T00:17:34.582Z,99.90
2019-03-26T00:20:04.770Z,99.90
2019-03-26T00:22:34.918Z,99.90
2019-03-26T00:25:04.946Z,99.90
2019-03-26T00:27:34.959Z,99.90
2019-03-26T00:30:05.317Z,99.90
2019-03-26T00:32:35.329Z,99.90
2019-03-26T00:35:05.298Z,99.90
2019-03-26T00:37:35.262Z,99.90
2019-03-26T00:40:06.253Z,99.90
2019-03-26T00:42:36.182Z,99.90
2019-03-26T00:45:06.375Z,99.90
2019-03-26T00:47:37.294Z,99.90
2019-03-26T00:50:08.054Z,99.90
2019-03-26T00:52:38.034Z,99.90
2019-03-26T00:55:21.709Z,99.90
2019-03-26T00:57:40.795Z,99.90
2019-03-26T01:00:11.967Z,99.90
2019-03-26T01:02:41.969Z,99.90
2019-03-26T01:05:12.106Z,99.90
2019-03-26T01:07:42.119Z,99.90
2019-03-26T01:10:22.675Z,99.90
2019-03-26T01:12:52.729Z,99.90
2019-03-26T01:15:22.750Z,99.90
2019-03-26T01:17:52.778Z,99.90
2019-03-26T01:20:22.726Z,99.90
2019-03-26T01:22:52.803Z,99.90
2019-03-26T01:25:22.895Z,99.90
2019-03-26T01:27:52.930Z,99.90
2019-03-26T01:30:22.943Z,99.90
2019-03-26T01:32:52.862Z,99.90
2019-03-26T01:35:22.857Z,99.90
2019-03-26T01:37:52.772Z,99.90
2019-03-26T01:40:22.761Z,99.90
2019-03-26T01:42:52.943Z,99.90
2019-03-26T01:45:23.234Z,99.90
2019-03-26T01:47:53.296Z,99.90
2019-03-26T01:50:23.262Z,99.90
2019-03-26T01:52:53.275Z,99.90
2019-03-26T01:55:23.264Z,99.90
2019-03-26T01:57:53.363Z,99.90
2019-03-26T02:00:23.309Z,99.90
2019-03-26T02:02:53.438Z,99.90
2019-03-26T02:05:23.518Z,99.90
2019-03-26T02:07:53.486Z,99.90
2019-03-26T02:10:23.479Z,99.90
2019-03-26T02:12:53.581Z,99.90
2019-03-26T02:15:33.818Z,99.90
2019-03-26T02:18:04.124Z,99.90
2019-03-26T02:20:34.167Z,99.90
2019-03-26T02:23:04.646Z,99.90
2019-03-26T02:25:35.026Z,99.90
2019-03-26T02:28:05.046Z,99.90
2019-03-26T02:30:35.254Z,99.90
2019-03-26T02:33:05.340Z,99.90
2019-03-26T02:35:35.227Z,99.90
2019-03-26T02:38:05.206Z,99.90
2019-03-26T02:40:35.169Z,99.90
2019-03-26T02:43:05.195Z,99.90
2019-03-26T02:45:35.145Z,99.90
2019-03-26T02:48:05.369Z,99.90
2019-03-26T02:50:35.419Z,99.90
2019-03-26T02:53:08.541Z,99.90
2019-03-26T02:55:37.081Z,99.90
2019-03-26T02:58:07.078Z,99.90
2019-03-26T03:00:37.059Z,99.90
2019-03-26T03:03:06.996Z,99.90
2019-03-26T03:05:37.040Z,99.90
2019-03-26T03:08:07.167Z,99.90
2019-03-26T03:10:37.187Z,99.90
2019-03-26T03:13:07.224Z,99.90
2019-03-26T03:15:37.219Z,99.90
2019-03-26T03:18:07.323Z,99.90
2019-03-26T03:20:37.298Z,99.90
2019-03-26T03:23:07.302Z,99.90
2019-03-26T03:25:37.243Z,99.90
2019-03-26T03:28:07.339Z,99.90
2019-03-26T03:30:37.353Z,99.90
2019-03-26T03:33:07.498Z,99.90
2019-03-26T03:35:51.465Z,99.90
2019-03-26T03:38:09.198Z,99.90
2019-03-26T03:40:39.152Z,99.90
2019-03-26T03:43:09.219Z,99.90
2019-03-26T03:45:40.300Z,99.90
2019-03-26T03:48:10.701Z,99.90
2019-03-26T03:50:40.840Z,99.90
2019-03-26T03:53:12.355Z,99.90
2019-03-26T03:55:42.655Z,99.90
2019-03-26T03:58:12.563Z,99.90
2019-03-26T04:00:43.033Z,99.90
2019-03-26T04:03:13.164Z,99.90
2019-03-26T04:05:43.155Z,99.90
2019-03-26T04:08:13.140Z,99.90
2019-03-26T04:10:43.167Z,99.90
2019-03-26T04:13:13.191Z,99.90
2019-03-26T04:15:43.226Z,99.90
2019-03-26T04:18:13.829Z,99.90
2019-03-26T04:20:43.816Z,99.90
2019-03-26T04:23:13.806Z,99.90
2019-03-26T04:25:43.814Z,99.90
2019-03-26T04:28:13.690Z,99.90
2019-03-26T04:30:43.709Z,99.90
2019-03-26T04:33:13.627Z,99.90
2019-03-26T04:35:43.623Z,99.90
2019-03-26T04:38:13.686Z,99.90
2019-03-26T04:40:43.706Z,99.90
2019-03-26T04:43:13.666Z,99.90
2019-03-26T04:45:43.675Z,99.90
2019-03-26T04:48:13.647Z,99.90
2019-03-26T04:50:43.671Z,99.90
2019-03-26T04:53:13.695Z,99.90
2019-03-26T04:55:43.685Z,99.90
2019-03-26T04:58:13.952Z,99.90
2019-03-26T05:00:44.042Z,99.90
2019-03-26T05:03:14.065Z,99.90
2019-03-26T05:05:44.088Z,99.90
2019-03-26T05:08:14.043Z,99.90
2019-03-26T05:10:44.102Z,99.90
2019-03-26T05:13:14.462Z,99.90
2019-03-26T05:15:44.526Z,99.90
2019-03-26T05:18:14.486Z,99.90
2019-03-26T05:20:44.561Z,99.90
2019-03-26T05:23:14.613Z,99.90
2019-03-26T05:25:44.711Z,99.90
2019-03-26T05:28:14.757Z,99.90
2019-03-26T05:30:44.755Z,99.90
2019-03-26T05:33:14.850Z,99.90
2019-03-26T05:35:44.920Z,99.90
2019-03-26T05:38:15.010Z,99.90
2019-03-26T05:40:45.012Z,99.90
2019-03-26T05:43:15.141Z,99.90
2019-03-26T05:45:45.241Z,99.90
2019-03-26T05:48:15.267Z,99.90
2019-03-26T05:50:45.248Z,99.90
2019-03-26T05:53:15.327Z,99.90
2019-03-26T05:55:45.960Z,99.90
2019-03-26T05:58:15.948Z,99.90
2019-03-26T06:00:45.973Z,99.90
2019-03-26T06:03:16.014Z,99.90
2019-03-26T06:05:46.175Z,99.90
2019-03-26T06:08:16.298Z,99.90
2019-03-26T06:10:46.806Z,99.90
2019-03-26T06:13:16.790Z,99.90
2019-03-26T06:15:46.994Z,99.90
2019-03-26T06:18:17.076Z,99.90
2019-03-26T06:20:47.118Z,99.90
2019-03-26T06:23:17.124Z,99.90
2019-03-26T06:25:47.348Z,99.90
2019-03-26T06:28:17.410Z,99.90
2019-03-26T06:30:47.465Z,99.90
2019-03-26T06:33:17.544Z,99.90
2019-03-26T06:35:47.729Z,99.90
2019-03-26T06:38:17.758Z,99.90
2019-03-26T06:40:47.914Z,99.90
2019-03-26T06:43:17.933Z,99.90
2019-03-26T06:45:47.999Z,99.90
2019-03-26T06:48:17.950Z,99.90
2019-03-26T06:50:48.002Z,99.90
2019-03-26T06:53:18.071Z,99.90
2019-03-26T06:55:48.079Z,99.90
2019-03-26T06:58:18.092Z,99.90
2019-03-26T07:00:48.196Z,99.90
2019-03-26T07:03:18.583Z,99.90
2019-03-26T07:05:48.529Z,99.90
2019-03-26T07:08:18.440Z,99.90
2019-03-26T07:10:48.310Z,99.90
2019-03-26T07:13:18.674Z,99.90
2019-03-26T07:15:49.422Z,99.90
2019-03-26T07:18:19.478Z,99.90
2019-03-26T07:20:49.491Z,99.90
2019-03-26T07:23:19.494Z,99.90
2019-03-26T07:25:49.688Z,99.90
2019-03-26T07:28:19.754Z,99.90
2019-03-26T07:30:49.933Z,99.90
2019-03-26T07:33:19.927Z,99.90
2019-03-26T07:35:50.057Z,99.90
2019-03-26T07:38:20.354Z,99.90
2019-03-26T07:40:51.946Z,99.90
2019-03-26T07:43:22.015Z,99.90
2019-03-26T07:45:52.063Z,99.90
2019-03-26T07:48:22.179Z,99.90
2019-03-26T07:50:52.238Z,99.90
2019-03-26T07:53:22.323Z,99.60
2019-03-26T07:55:52.302Z,99.20
2019-03-26T07:58:22.440Z,98.50
2019-03-26T08:00:52.469Z,98.30
2019-03-26T08:03:22.530Z,98.10
2019-03-26T08:05:52.592Z,97.80
2019-03-26T08:08:22.592Z,97.00
2019-03-26T08:10:52.597Z,96.90
2019-03-26T08:13:22.708Z,96.80
2019-03-26T08:15:52.690Z,96.40
2019-03-26T08:18:22.771Z,96.60
2019-03-26T08:20:52.773Z,96.20
2019-03-26T08:23:22.766Z,96.70
2019-03-26T08:25:52.808Z,96.10
2019-03-26T08:28:22.851Z,96.30
2019-03-26T08:30:52.890Z,96.40
2019-03-26T08:33:23.482Z,96.70
2019-03-26T08:35:53.599Z,96.80
2019-03-26T08:38:23.704Z,96.50
2019-03-26T08:40:53.588Z,96.90
2019-03-26T08:43:23.929Z,97.20
2019-03-26T08:45:53.938Z,97.20
2019-03-26T08:48:24.002Z,97.40
2019-03-26T08:50:54.005Z,98.70
2019-03-26T08:53:23.996Z,99.10
2019-03-26T08:55:54.227Z,99.70
2019-03-26T08:58:24.223Z,99.90
2019-03-26T09:00:54.225Z,99.90
2019-03-26T09:03:24.789Z,99.20
2019-03-26T09:05:54.851Z,99.10
2019-03-26T09:08:25.845Z,98.90
2019-03-26T09:10:55.973Z,98.90
2019-03-26T09:13:25.951Z,98.60
2019-03-26T09:15:56.064Z,99.20
2019-03-26T09:18:26.057Z,98.60
2019-03-26T09:20:56.091Z,98.90
2019-03-26T09:23:26.095Z,98.10
2019-03-26T09:25:56.232Z,96.40
2019-03-26T09:28:26.240Z,96.60
2019-03-26T09:30:56.284Z,96.60
2019-03-26T09:33:26.410Z,96.60
2019-03-26T09:35:56.488Z,96.30
2019-03-26T09:38:38.452Z,96.20
2019-03-26T09:40:58.193Z,96.60
2019-03-26T09:43:28.189Z,95.70
2019-03-26T09:45:58.237Z,94.90
2019-03-26T09:48:28.123Z,94.60
2019-03-26T09:50:58.093Z,94.30
2019-03-26T09:53:28.119Z,92.90
2019-03-26T09:55:58.170Z,93.40
2019-03-26T09:58:28.182Z,94.40
2019-03-26T10:00:58.230Z,93.30
2019-03-26T10:03:28.246Z,94.50
2019-03-26T10:05:58.356Z,92.80
2019-03-26T10:08:28.335Z,93.70
2019-03-26T10:10:58.420Z,91.80
2019-03-26T10:13:28.435Z,92.80
2019-03-26T10:15:58.587Z,93.30
2019-03-26T10:18:28.714Z,93.70
2019-03-26T10:20:58.832Z,93.90
2019-03-26T10:23:29.216Z,94.70
2019-03-26T10:25:59.307Z,93.50
2019-03-26T10:28:29.447Z,93.60
2019-03-26T10:30:59.502Z,93.40
2019-03-26T10:33:29.500Z,93.70
2019-03-26T10:35:59.594Z,93.70
2019-03-26T10:38:29.615Z,93.70
2019-03-26T10:40:59.716Z,92.90
2019-03-26T10:43:29.697Z,92.60
2019-03-26T10:45:59.866Z,93.40
2019-03-26T10:48:31.866Z,93.70
2019-03-26T10:51:01.664Z,93.60
2019-03-26T10:53:31.700Z,93.40
2019-03-26T10:56:01.759Z,94.30
2019-03-26T10:58:31.809Z,94.40
2019-03-26T11:01:02.067Z,94.10
2019-03-26T11:03:32.169Z,94.20
2019-03-26T11:06:02.231Z,94.10
2019-03-26T11:08:32.304Z,94.10
2019-03-26T11:11:03.059Z,94.50
2019-03-26T11:13:33.060Z,94.40
2019-03-26T11:16:03.284Z,93.60
2019-03-26T11:18:33.327Z,93.20
2019-03-26T11:21:03.763Z,93.60
2019-03-26T11:23:33.820Z,94.00
2019-03-26T11:26:04.643Z,94.30
2019-03-26T11:28:34.746Z,94.40
2019-03-26T11:31:05.591Z,94.90
2019-03-26T11:33:35.875Z,95.20
2019-03-26T11:36:06.026Z,95.20
2019-03-26T11:38:36.542Z,95.70
2019-03-26T11:41:06.592Z,95.80
2019-03-26T11:43:36.674Z,96.00
2019-03-26T11:46:06.893Z,95.90
2019-03-26T11:48:39.334Z,95.80
2019-03-26T11:51:09.404Z,96.00
2019-03-26T11:53:39.564Z,96.10
2019-03-26T11:56:10.651Z,96.00
2019-03-26T11:58:40.647Z,96.10
2019-03-26T12:01:10.678Z,96.00
2019-03-26T12:03:40.747Z,96.20
2019-03-26T12:06:10.781Z,96.30
2019-03-26T12:08:40.867Z,96.20
2019-03-26T12:11:10.991Z,96.60
2019-03-26T12:13:41.450Z,96.20
2019-03-26T12:16:11.563Z,95.50
2019-03-26T12:18:42.248Z,95.60
2019-03-26T12:21:12.343Z,96.10
2019-03-26T12:23:43.667Z,95.30
2019-03-26T12:26:14.561Z,95.30
2019-03-26T12:28:44.531Z,94.60
2019-03-26T12:31:14.591Z,94.70
2019-03-26T12:33:45.890Z,94.70
2019-03-26T12:36:16.031Z,94.00
2019-03-26T12:38:46.248Z,94.00
2019-03-26T12:41:16.350Z,94.30
2019-03-26T12:43:46.753Z,93.80
2019-03-26T12:46:16.820Z,93.20
2019-03-26T12:48:46.880Z,93.20
2019-03-26T12:51:17.233Z,93.60
2019-03-26T12:53:47.603Z,92.20
2019-03-26T12:56:19.055Z,93.70
2019-03-26T12:58:49.083Z,93.80
2019-03-26T13:01:19.176Z,94.20
2019-03-26T13:03:50.216Z,94.20
2019-03-26T13:06:20.682Z,94.50
2019-03-26T13:08:51.299Z,94.80
2019-03-26T13:11:21.357Z,95.10
2019-03-26T13:13:51.998Z,95.40
2019-03-26T13:16:22.290Z,95.60
2019-03-26T13:18:52.390Z,95.30
2019-03-26T13:21:24.195Z,95.60
2019-03-26T13:23:54.694Z,95.70
2019-03-26T13:26:24.873Z,95.90
2019-03-26T13:28:54.968Z,96.20
2019-03-26T13:31:25.223Z,96.40
2019-03-26T13:33:55.263Z,96.70
2019-03-26T13:36:25.400Z,96.90
2019-03-26T13:38:55.472Z,97.40
2019-03-26T13:41:25.541Z,97.30
2019-03-26T13:43:55.681Z,97.70
2019-03-26T13:46:26.145Z,98.60
2019-03-26T13:48:56.236Z,99.60
2019-03-26T13:51:26.721Z,99.90
2019-03-26T13:53:58.619Z,99.90
2019-03-26T13:56:29.118Z,99.90
2019-03-26T13:58:59.140Z,99.90
2019-03-26T14:01:29.498Z,99.90
2019-03-26T14:03:59.986Z,99.90
2019-03-26T14:06:32.605Z,99.90
2019-03-26T14:09:03.966Z,99.90
2019-03-26T14:11:34.363Z,99.90
2019-03-26T14:14:04.873Z,99.90
2019-03-26T14:16:35.212Z,99.90
2019-03-26T14:19:05.272Z,99.90
2019-03-26T14:21:35.434Z,99.90
2019-03-26T14:24:05.451Z,99.90
2019-03-26T14:26:35.530Z,99.90
2019-03-26T14:29:05.608Z,99.90
2019-03-26T14:31:35.803Z,99.90
2019-03-26T14:34:05.983Z,99.90
2019-03-26T14:36:36.136Z,99.90
2019-03-26T14:39:10.030Z,99.90
2019-03-26T14:41:40.812Z,99.90
2019-03-26T14:44:12.711Z,99.90
2019-03-26T14:46:42.833Z,99.90
2019-03-26T14:49:13.077Z,99.90
2019-03-26T14:51:43.263Z,99.90
2019-03-26T14:54:13.694Z,99.90
2019-03-26T14:56:43.931Z,99.90
2019-03-26T14:59:13.988Z,99.90
2019-03-26T15:01:45.703Z,99.90
2019-03-26T15:04:15.934Z,99.90
2019-03-26T15:06:46.213Z,99.90
2019-03-26T15:09:16.328Z,99.90
2019-03-26T15:11:46.495Z,99.90
2019-03-26T15:14:16.684Z,99.90
2019-03-26T15:16:46.808Z,99.90
2019-03-26T15:19:16.969Z,99.90
2019-03-26T15:21:47.152Z,99.90
2019-03-26T15:24:19.099Z,99.90
2019-03-26T15:26:50.225Z,99.90
2019-03-26T15:29:20.722Z,99.90
2019-03-26T15:31:51.008Z,99.90
2019-03-26T15:34:35.370Z,99.90
2019-03-26T15:36:55.147Z,99.90
2019-03-26T15:39:25.305Z,99.90
2019-03-26T15:41:55.414Z,99.90
2019-03-26T15:44:25.500Z,99.90
2019-03-26T15:46:55.881Z,99.90
2019-03-26T15:49:25.975Z,99.90
2019-03-26T15:51:56.086Z,99.90
2019-03-26T15:54:26.273Z,99.90
2019-03-26T15:56:56.521Z,99.90
2019-03-26T15:59:27.748Z,99.90
2019-03-26T16:01:58.815Z,99.90
2019-03-26T16:04:28.928Z,99.90
2019-03-26T16:06:59.178Z,99.90
2019-03-26T16:09:30.648Z,99.90
2019-03-26T16:12:03.047Z,99.90
2019-03-26T16:14:33.493Z,99.90
2019-03-26T16:17:04.052Z,99.90
2019-03-26T16:19:36.544Z,99.90
2019-03-26T16:22:06.746Z,99.90
2019-03-26T16:24:36.813Z,99.90
2019-03-26T16:27:07.062Z,99.90
2019-03-26T16:29:37.292Z,99.90
2019-03-26T16:32:07.487Z,99.90
2019-03-26T16:34:37.725Z,99.90
2019-03-26T16:37:07.947Z,99.90
2019-03-26T16:39:38.747Z,99.90
2019-03-26T16:42:08.881Z,99.90
2019-03-26T16:44:39.094Z,99.90
2019-03-26T16:47:09.207Z,99.90
2019-03-26T16:49:39.890Z,99.90
2019-03-26T16:52:09.980Z,99.90
2019-03-26T16:54:41.256Z,99.90
2019-03-26T16:57:11.506Z,99.90
2019-03-26T16:59:41.677Z,99.90
2019-03-26T17:02:11.862Z,99.90
2019-03-26T17:04:42.221Z,99.90
2019-03-26T17:07:12.384Z,99.90
2019-03-26T17:09:44.978Z,99.90
2019-03-26T17:12:16.418Z,99.90
2019-03-26T17:14:47.209Z,99.90
2019-03-26T17:17:17.470Z,99.90
2019-03-26T17:19:47.957Z,99.90
2019-03-26T17:22:18.813Z,99.90
2019-03-26T17:24:49.233Z,99.90
2019-03-26T17:27:19.577Z,99.90
2019-03-26T17:29:49.847Z,99.90
2019-03-26T17:32:20.084Z,99.90
2019-03-26T17:34:50.760Z,99.90
2019-03-26T17:37:21.938Z,99.90
2019-03-26T17:39:52.897Z,99.90
2019-03-26T17:42:23.387Z,99.90
2019-03-26T17:44:54.287Z,99.90
2019-03-26T17:47:26.105Z,99.90
2019-03-26T17:49:57.498Z,99.90
2019-03-26T17:52:27.726Z,99.90
2019-03-26T17:54:57.979Z,99.90
2019-03-26T17:57:28.639Z,99.90
2019-03-26T17:59:58.805Z,99.90
2019-03-26T18:02:29.104Z,99.90
2019-03-26T18:04:59.457Z,99.90
2019-03-26T18:07:29.726Z,99.90
2019-03-26T18:09:59.971Z,99.90
2019-03-26T18:12:31.339Z,99.90
2019-03-26T18:15:05.388Z,99.90
2019-03-26T18:17:39.166Z,99.90
2019-03-26T18:20:13.474Z,99.90
2019-03-26T18:22:49.511Z,99.90
2019-03-26T18:25:21.916Z,99.90
2019-03-26T18:27:56.848Z,99.90
2019-03-26T18:30:28.168Z,99.90
2019-03-26T18:32:59.990Z,99.90
2019-03-26T18:35:33.869Z,99.90
2019-03-26T18:38:06.717Z,99.90
2019-03-26T18:40:42.144Z,99.90
2019-03-26T18:43:16.321Z,99.90
2019-03-26T18:45:50.565Z,99.90
2019-03-26T18:48:27.760Z,99.90
2019-03-26T18:50:59.751Z,99.90
2019-03-26T18:53:30.612Z,99.90
2019-03-26T18:56:02.184Z,99.90
2019-03-26T18:58:32.779Z,99.90
2019-03-26T19:01:03.169Z,99.90
2019-03-26T19:03:36.742Z,99.90
2019-03-26T19:06:09.480Z,99.90
2019-03-26T19:08:41.059Z,99.90
2019-03-26T19:11:17.718Z,99.90
2019-03-26T19:13:51.298Z,99.90
2019-03-26T19:16:23.225Z,99.90
2019-03-26T19:18:54.765Z,99.90
2019-03-26T19:21:27.536Z,99.90
2019-03-26T19:24:04.466Z,99.90
2019-03-26T19:26:34.789Z,99.90
2019-03-26T19:29:06.843Z,99.90
2019-03-26T19:31:37.793Z,99.90
2019-03-26T19:34:08.892Z,99.90
2019-03-26T19:36:39.655Z,99.90
2019-03-26T19:39:11.390Z,99.90
2019-03-26T19:41:41.965Z,99.90
2019-03-26T19:44:12.252Z,99.90
2019-03-26T19:46:44.010Z,99.90
2019-03-26T19:49:14.967Z,99.90
2019-03-26T19:51:45.493Z,99.90
2019-03-26T19:54:16.545Z,99.90
2019-03-26T19:56:46.937Z,99.90
2019-03-26T19:59:21.671Z,99.90
2019-03-26T20:01:53.321Z,99.90
2019-03-26T20:04:24.087Z,99.90
2019-03-26T20:06:55.496Z,99.90
2019-03-26T20:09:29.191Z,99.90
2019-03-26T20:11:59.887Z,99.90
2019-03-26T20:14:33.144Z,99.90
2019-03-26T20:17:05.865Z,99.90
2019-03-26T20:19:38.478Z,99.90
2019-03-26T20:22:11.222Z,99.90
2019-03-26T20:24:43.455Z,99.90
2019-03-26T20:27:14.429Z,99.90
2019-03-26T20:29:45.010Z,99.90
2019-03-26T20:32:18.905Z,99.90
2019-03-26T20:34:52.195Z,99.90
2019-03-26T20:37:25.405Z,99.90
2019-03-26T20:39:56.893Z,99.90
2019-03-26T20:42:29.575Z,99.90
2019-03-26T20:45:01.724Z,99.90
2019-03-26T20:47:32.983Z,99.90
2019-03-26T20:50:03.503Z,99.90
2019-03-26T20:52:33.892Z,99.90
2019-03-26T20:55:04.536Z,99.90
2019-03-26T20:57:34.916Z,99.90
2019-03-26T21:00:07.598Z,99.90
2019-03-26T21:02:38.078Z,99.90
2019-03-26T21:05:09.689Z,99.90
2019-03-26T21:07:40.470Z,99.90
2019-03-26T21:10:10.863Z,99.90
2019-03-26T21:12:41.125Z,99.90
2019-03-26T21:15:12.039Z,99.90
2019-03-26T21:17:43.750Z,99.90
2019-03-26T21:20:14.071Z,99.90
2019-03-26T21:22:44.386Z,99.90
2019-03-26T21:25:14.522Z,99.90
2019-03-26T21:27:45.202Z,99.90
2019-03-26T21:30:16.365Z,99.90
2019-03-26T21:32:47.632Z,99.90
2019-03-26T21:35:17.870Z,99.90
2019-03-26T21:37:49.428Z,99.90
2019-03-26T21:40:19.748Z,99.90
2019-03-26T21:42:51.770Z,99.90
2019-03-26T21:45:37.052Z,99.90
2019-03-26T21:48:08.934Z,99.90
2019-03-26T21:50:39.269Z,99.90
2019-03-26T21:53:09.508Z,99.90
2019-03-26T21:55:40.307Z,99.90
2019-03-26T21:58:10.485Z,99.90
2019-03-26T22:00:40.568Z,99.90
2019-03-26T22:03:10.686Z,99.90
2019-03-26T22:05:40.785Z,99.90
2019-03-26T22:08:12.253Z,99.90
2019-03-26T22:10:42.290Z,99.90
2019-03-26T22:13:12.368Z,99.90
2019-03-26T22:15:42.472Z,99.90
2019-03-26T22:18:12.764Z,99.90
2019-03-26T22:20:42.872Z,99.90
2019-03-26T22:23:13.076Z,99.90
2019-03-26T22:25:43.869Z,99.90
2019-03-26T22:28:14.039Z,99.90
2019-03-26T22:30:44.104Z,99.90
2019-03-26T22:33:14.634Z,99.90
2019-03-26T22:35:44.981Z,99.90
2019-03-26T22:38:16.874Z,99.90
2019-03-26T22:40:46.956Z,99.90
2019-03-26T22:43:17.043Z,99.90
2019-03-26T22:45:47.193Z,99.90
2019-03-26T22:48:17.387Z,99.90
2019-03-26T22:50:47.867Z,99.90
2019-03-26T22:53:17.939Z,99.90
2019-03-26T22:55:47.951Z,99.90
2019-03-26T22:58:18.850Z,99.90
2019-03-26T23:00:50.005Z,99.90
2019-03-26T23:03:20.064Z,99.90
2019-03-26T23:05:50.212Z,99.90
2019-03-26T23:08:20.309Z,99.90
2019-03-26T23:10:50.417Z,99.90
2019-03-26T23:13:20.510Z,99.90
2019-03-26T23:15:50.484Z,99.90
2019-03-26T23:18:20.586Z,99.90
2019-03-26T23:20:50.699Z,99.90
2019-03-26T23:23:20.720Z,99.90
2019-03-26T23:25:50.791Z,99.90
2019-03-26T23:28:20.838Z,99.90
2019-03-26T23:30:51.142Z,99.90
2019-03-26T23:33:21.228Z,99.90
2019-03-26T23:35:53.961Z,99.90
2019-03-26T23:38:24.008Z,99.90
2019-03-26T23:40:54.062Z,99.90
2019-03-26T23:43:24.095Z,99.90
2019-03-26T23:45:54.062Z,99.90
2019-03-26T23:48:24.115Z,99.90
2019-03-26T23:50:54.147Z,99.90
2019-03-26T23:53:24.603Z,99.90
2019-03-26T23:55:54.587Z,99.90
2019-03-26T23:58:25.522Z,99.90
